createdAt,value
2022-10-10T00:00:38.981Z,97104.38
2022-10-10T00:03:06.061Z,97107.81
2022-10-10T00:05:32.500Z,97112.72
2022-10-10T00:07:58.958Z,97107.63
2022-10-10T00:10:25.916Z,97101.09
2022-10-10T00:12:52.751Z,97102.25
2022-10-10T00:15:19.505Z,97102.56
2022-10-10T00:17:45.808Z,97094.72
2022-10-10T00:20:24.230Z,97104.69
2022-10-10T00:22:50.809Z,97105.19
2022-10-10T00:25:23.270Z,97103.88
2022-10-10T00:27:49.578Z,97109.44
2022-10-10T00:30:16.949Z,97095.34
2022-10-10T00:32:43.265Z,97101.56
2022-10-10T00:35:20.834Z,97100.44
2022-10-10T00:37:47.197Z,97092.88
2022-10-10T00:40:18.720Z,97096.34
2022-10-10T00:42:45.097Z,97098.78
2022-10-10T00:45:20.663Z,97097.00
2022-10-10T00:47:47.510Z,97096.63
2022-10-10T00:50:14.037Z,97094.38
2022-10-10T00:52:40.490Z,97095.66
2022-10-10T00:55:06.992Z,97093.22
2022-10-10T00:57:33.390Z,97095.16
2022-10-10T01:00:00.234Z,97098.63
2022-10-10T01:02:26.682Z,97098.25
2022-10-10T01:05:04.705Z,97093.69
2022-10-10T01:07:31.657Z,97095.47
2022-10-10T01:10:11.098Z,97089.25
2022-10-10T01:12:56.561Z,97074.50
2022-10-10T01:15:22.977Z,97073.66
2022-10-10T01:17:49.314Z,97078.59
2022-10-10T01:20:25.824Z,97071.72
2022-10-10T01:23:11.015Z,97070.06
2022-10-10T01:25:56.045Z,97064.13
2022-10-10T01:28:22.405Z,97070.53
2022-10-10T01:30:48.923Z,97065.28
2022-10-10T01:33:35.059Z,97073.00
2022-10-10T01:36:01.365Z,97054.94
2022-10-10T01:38:31.774Z,97068.72
2022-10-10T01:41:06.762Z,97055.91
2022-10-10T01:43:35.837Z,97072.34
2022-10-10T01:46:09.899Z,97056.41
2022-10-10T01:48:36.447Z,97057.56
2022-10-10T01:51:21.646Z,97060.88
2022-10-10T01:54:10.738Z,97058.91
2022-10-10T01:56:58.770Z,97059.50
2022-10-10T01:59:40.383Z,97054.94
2022-10-10T02:02:15.577Z,97051.97
2022-10-10T02:04:46.036Z,97059.47
2022-10-10T02:07:19.495Z,97056.03
2022-10-10T02:09:46.637Z,97054.84
2022-10-10T02:12:13.871Z,97047.31
2022-10-10T02:14:45.989Z,97048.63
2022-10-10T02:17:13.968Z,97043.38
2022-10-10T02:19:46.509Z,97039.97
2022-10-10T02:22:13.801Z,97037.97
2022-10-10T02:24:43.372Z,97039.13
2022-10-10T02:27:23.675Z,97034.03
2022-10-10T02:29:51.056Z,97031.78
2022-10-10T02:32:34.501Z,97035.19
2022-10-10T02:35:05.840Z,97030.72
2022-10-10T02:37:32.933Z,97025.63
2022-10-10T02:40:06.750Z,97025.25
2022-10-10T02:42:34.249Z,97021.88
2022-10-10T02:45:00.698Z,97016.81
2022-10-10T02:47:32.910Z,97023.34
2022-10-10T02:49:59.225Z,97018.56
2022-10-10T02:52:25.531Z,97013.34
2022-10-10T02:54:54.796Z,97014.31
2022-10-10T02:57:21.193Z,97018.09
2022-10-10T02:59:47.509Z,97014.44
2022-10-10T03:02:13.868Z,97024.25
2022-10-10T03:04:40.220Z,97020.66
2022-10-10T03:07:07.556Z,97018.00
2022-10-10T03:09:33.927Z,97018.47
2022-10-10T03:12:00.283Z,97015.03
2022-10-10T03:14:28.737Z,97017.59
2022-10-10T03:16:55.156Z,97020.06
2022-10-10T03:19:21.524Z,97017.59
2022-10-10T03:21:47.971Z,97015.97
2022-10-10T03:24:14.342Z,97017.56
2022-10-10T03:26:43.889Z,97026.63
2022-10-10T03:29:10.259Z,97034.25
2022-10-10T03:31:36.572Z,97030.00
2022-10-10T03:34:03.958Z,97030.66
2022-10-10T03:36:31.368Z,97039.72
2022-10-10T03:38:57.709Z,97039.50
2022-10-10T03:41:24.158Z,97039.84
2022-10-10T03:43:50.538Z,97043.47
2022-10-10T03:46:18.151Z,97037.09
2022-10-10T03:48:44.464Z,97035.19
2022-10-10T03:51:13.919Z,97033.41
2022-10-10T03:53:41.304Z,97027.59
2022-10-10T03:56:07.648Z,97030.03
2022-10-10T03:58:33.981Z,97026.47
2022-10-10T04:01:03.292Z,97021.53
2022-10-10T04:03:29.857Z,97016.13
2022-10-10T04:05:57.494Z,97017.88
2022-10-10T04:08:24.129Z,97024.69
2022-10-10T04:10:58.445Z,97020.44
2022-10-10T04:13:27.960Z,97018.31
2022-10-10T04:15:55.174Z,97020.59
2022-10-10T04:18:22.321Z,97020.88
2022-10-10T04:20:55.657Z,97020.75
2022-10-10T04:23:22.041Z,97016.94
2022-10-10T04:25:52.599Z,97027.16
2022-10-10T04:28:19.269Z,97015.22
2022-10-10T04:30:45.916Z,97010.75
2022-10-10T04:33:12.376Z,97013.72
2022-10-10T04:35:39.100Z,97013.00
2022-10-10T04:38:07.557Z,97014.03
2022-10-10T04:40:35.391Z,97023.06
2022-10-10T04:43:01.759Z,97022.84
2022-10-10T04:45:28.193Z,97014.19
2022-10-10T04:47:54.778Z,97017.19
2022-10-10T04:50:21.493Z,97017.69
2022-10-10T04:52:48.016Z,97023.59
2022-10-10T04:55:15.607Z,97018.16
2022-10-10T04:57:41.927Z,97025.91
2022-10-10T05:00:09.290Z,97023.81
2022-10-10T05:02:35.593Z,97032.72
2022-10-10T05:05:01.914Z,97033.31
2022-10-10T05:07:28.247Z,97030.41
2022-10-10T05:09:55.750Z,97028.03
2022-10-10T05:12:22.533Z,97028.59
2022-10-10T05:14:51.973Z,97033.69
2022-10-10T05:17:19.064Z,97034.94
2022-10-10T05:19:45.401Z,97038.41
2022-10-10T05:22:14.866Z,97036.06
2022-10-10T05:24:44.363Z,97039.41
2022-10-10T05:27:10.893Z,97035.69
2022-10-10T05:29:38.270Z,97045.31
2022-10-10T05:32:09.886Z,97041.19
2022-10-10T05:34:36.455Z,97040.09
2022-10-10T05:37:07.957Z,97036.75
2022-10-10T05:39:35.193Z,97048.94
2022-10-10T05:42:01.692Z,97040.41
2022-10-10T05:44:33.790Z,97034.19
2022-10-10T05:47:00.098Z,97034.19
2022-10-10T05:49:26.416Z,97030.91
2022-10-10T05:51:52.721Z,97035.78
2022-10-10T05:54:19.112Z,97030.03
2022-10-10T05:56:46.371Z,97036.16
2022-10-10T05:59:12.704Z,97036.75
2022-10-10T06:01:40.100Z,97037.13
2022-10-10T06:04:06.756Z,97036.72
2022-10-10T06:06:33.165Z,97039.66
2022-10-10T06:08:59.653Z,97040.03
2022-10-10T06:11:26.101Z,97040.09
2022-10-10T06:13:54.404Z,97040.50
2022-10-10T06:16:25.254Z,97037.31
2022-10-10T06:18:51.941Z,97040.19
2022-10-10T06:21:18.423Z,97039.72
2022-10-10T06:23:45.097Z,97043.75
2022-10-10T06:26:11.737Z,97040.25
2022-10-10T06:28:38.211Z,97033.63
2022-10-10T06:31:12.735Z,97041.75
2022-10-10T06:33:41.124Z,97046.09
2022-10-10T06:36:08.125Z,97051.78
2022-10-10T06:38:37.793Z,97050.34
2022-10-10T06:41:05.029Z,97048.56
2022-10-10T06:43:31.941Z,97046.97
2022-10-10T06:45:58.350Z,97052.19
2022-10-10T06:48:34.664Z,97048.66
2022-10-10T06:51:04.282Z,97054.88
2022-10-10T06:53:31.172Z,97057.34
2022-10-10T06:55:57.641Z,97063.44
2022-10-10T06:58:24.325Z,97064.91
2022-10-10T07:00:54.602Z,97061.97
2022-10-10T07:03:21.634Z,97063.94
2022-10-10T07:05:55.386Z,97055.59
2022-10-10T07:08:24.394Z,97060.84
2022-10-10T07:10:51.373Z,97058.34
2022-10-10T07:13:18.309Z,97065.78
2022-10-10T07:15:44.985Z,97060.56
2022-10-10T07:18:11.323Z,97067.44
2022-10-10T07:20:40.750Z,97072.69
2022-10-10T07:23:09.261Z,97072.03
2022-10-10T07:25:39.698Z,97066.97
2022-10-10T07:28:07.550Z,97071.56
2022-10-10T07:30:34.519Z,97076.16
2022-10-10T07:33:00.838Z,97074.38
2022-10-10T07:35:27.421Z,97074.69
2022-10-10T07:37:58.652Z,97075.53
2022-10-10T07:40:25.991Z,97086.84
2022-10-10T07:42:52.621Z,97087.50
2022-10-10T07:45:19.164Z,97091.09
2022-10-10T07:47:46.311Z,97092.59
2022-10-10T07:50:13.129Z,97089.69
2022-10-10T07:52:40.304Z,97091.78
2022-10-10T07:55:07.447Z,97084.44
2022-10-10T07:57:36.077Z,97086.50
2022-10-10T08:00:06.892Z,97088.56
2022-10-10T08:02:33.273Z,97083.19
2022-10-10T08:04:59.701Z,97084.44
2022-10-10T08:07:26.127Z,97087.69
2022-10-10T08:09:56.591Z,97091.44
2022-10-10T08:12:22.993Z,97084.19
2022-10-10T08:14:51.402Z,97089.66
2022-10-10T08:17:17.729Z,97089.13
2022-10-10T08:19:51.915Z,97088.88
2022-10-10T08:22:18.352Z,97086.69
2022-10-10T08:24:44.867Z,97087.28
2022-10-10T08:27:11.206Z,97083.28
2022-10-10T08:29:38.561Z,97086.53
2022-10-10T08:32:04.879Z,97084.63
2022-10-10T08:34:32.244Z,97074.13
2022-10-10T08:36:58.631Z,97079.50
2022-10-10T08:39:25.069Z,97079.69
2022-10-10T08:41:52.885Z,97076.34
2022-10-10T08:44:23.011Z,97078.22
2022-10-10T08:46:51.381Z,97067.72
2022-10-10T08:49:34.915Z,97072.69
2022-10-10T08:52:18.169Z,97073.59
2022-10-10T08:54:45.218Z,97070.09
2022-10-10T08:57:19.811Z,97069.09
2022-10-10T08:59:46.653Z,97063.63
2022-10-10T09:02:43.991Z,97064.19
2022-10-10T09:05:19.775Z,97069.31
2022-10-10T09:07:52.273Z,97069.31
2022-10-10T09:10:24.529Z,97066.38
2022-10-10T09:13:03.064Z,97072.09
2022-10-10T09:15:33.962Z,97065.72
2022-10-10T09:18:19.071Z,97071.72
2022-10-10T09:20:49.301Z,97061.09
2022-10-10T09:23:25.009Z,97067.13
2022-10-10T09:26:04.401Z,97060.97
2022-10-10T09:28:36.042Z,97064.06
2022-10-10T09:31:05.643Z,97056.59
2022-10-10T09:33:39.015Z,97064.97
2022-10-10T09:36:09.537Z,97058.88
2022-10-10T09:38:40.185Z,97063.41
2022-10-10T09:41:12.793Z,97057.47
2022-10-10T09:43:40.260Z,97054.16
2022-10-10T09:46:06.692Z,97060.28
2022-10-10T09:48:42.661Z,97057.00
2022-10-10T09:51:13.946Z,97059.03
2022-10-10T09:53:41.089Z,97063.22
2022-10-10T09:56:08.633Z,97051.84
2022-10-10T09:58:41.344Z,97056.44
2022-10-10T10:01:15.767Z,97062.72
2022-10-10T10:03:42.451Z,97068.41
2022-10-10T10:06:12.003Z,97070.00
2022-10-10T10:08:38.665Z,97061.28
2022-10-10T10:11:05.616Z,97065.44
2022-10-10T10:13:33.592Z,97062.78
2022-10-10T10:16:05.228Z,97073.38
2022-10-10T10:18:37.676Z,97070.13
2022-10-10T10:21:09.812Z,97071.13
2022-10-10T10:23:57.990Z,97066.03
2022-10-10T10:26:24.390Z,97071.13
2022-10-10T10:28:52.696Z,97073.78
2022-10-10T10:31:22.247Z,97075.22
2022-10-10T10:33:54.329Z,97077.25
2022-10-10T10:36:23.817Z,97075.84
2022-10-10T10:38:52.075Z,97084.56
2022-10-10T10:41:30.117Z,97075.56
2022-10-10T10:44:08.698Z,97078.22
2022-10-10T10:46:38.015Z,97066.28
2022-10-10T10:49:21.803Z,97076.19
2022-10-10T10:52:03.385Z,97071.09
2022-10-10T10:54:42.454Z,97075.22
2022-10-10T10:57:40.550Z,97074.63
2022-10-10T11:00:47.676Z,97078.06
2022-10-10T11:03:34.976Z,97068.06
2022-10-10T11:05:56.388Z,97074.78
2022-10-10T11:08:39.704Z,97075.78
2022-10-10T11:11:16.036Z,97074.19
2022-10-10T11:13:54.478Z,97072.47
2022-10-10T11:16:47.978Z,97064.16
2022-10-10T11:19:14.661Z,97071.28
2022-10-10T11:21:45.179Z,97069.00
2022-10-10T11:24:27.777Z,97069.09
2022-10-10T11:26:56.008Z,97070.31
2022-10-10T11:29:24.805Z,97059.25
2022-10-10T11:32:03.517Z,97066.75
2022-10-10T11:34:43.165Z,97062.88
2022-10-10T11:37:16.944Z,97057.28
2022-10-10T11:39:52.750Z,97058.91
2022-10-10T11:42:27.376Z,97056.31
2022-10-10T11:45:06.873Z,97053.31
2022-10-10T11:47:40.498Z,97055.34
2022-10-10T11:50:18.304Z,97041.78
2022-10-10T11:52:51.961Z,97041.47
2022-10-10T11:55:22.420Z,97033.59
2022-10-10T11:58:07.310Z,97025.06
2022-10-10T12:00:40.285Z,97030.22
2022-10-10T12:03:09.620Z,97040.38
2022-10-10T12:05:39.783Z,97041.91
2022-10-10T12:08:17.885Z,97032.97
2022-10-10T12:10:47.477Z,97032.34
2022-10-10T12:13:32.279Z,97034.13
2022-10-10T12:16:02.824Z,97037.44
2022-10-10T12:18:41.317Z,97038.09
2022-10-10T12:21:09.618Z,97027.94
2022-10-10T12:23:36.623Z,97033.03
2022-10-10T12:26:03.575Z,97024.78
2022-10-10T12:28:56.451Z,97031.84
2022-10-10T12:31:27.229Z,97025.22
2022-10-10T12:34:08.811Z,97023.13
2022-10-10T12:36:41.114Z,97015.53
2022-10-10T12:39:10.824Z,97022.59
2022-10-10T12:41:47.159Z,97021.84
2022-10-10T12:44:22.389Z,97023.19
2022-10-10T12:47:08.673Z,97010.41
2022-10-10T12:49:35.548Z,97009.38
2022-10-10T12:52:12.456Z,97002.84
2022-10-10T12:54:41.006Z,97006.25
2022-10-10T12:57:13.938Z,97010.91
2022-10-10T12:59:41.072Z,97007.00
2022-10-10T13:02:12.645Z,97003.28
2022-10-10T13:04:42.231Z,96999.69
2022-10-10T13:07:13.199Z,96997.97
2022-10-10T13:09:40.200Z,97005.88
2022-10-10T13:12:07.264Z,96998.16
2022-10-10T13:14:38.416Z,97001.56
2022-10-10T13:17:18.873Z,97001.28
2022-10-10T13:19:45.196Z,96990.19
2022-10-10T13:22:11.511Z,96995.56
2022-10-10T13:24:39.505Z,96993.59
2022-10-10T13:27:05.933Z,96991.84
2022-10-10T13:29:33.611Z,96994.28
2022-10-10T13:32:02.120Z,96999.25
2022-10-10T13:34:30.710Z,96992.47
2022-10-10T13:36:58.473Z,96999.53
2022-10-10T13:39:25.841Z,97002.13
2022-10-10T13:41:52.659Z,97000.13
2022-10-10T13:44:24.074Z,96990.72
2022-10-10T13:46:50.444Z,96993.09
2022-10-10T13:49:22.108Z,96997.47
2022-10-10T13:51:51.435Z,96995.97
2022-10-10T13:54:36.224Z,96996.44
2022-10-10T13:57:03.467Z,96992.28
2022-10-10T13:59:30.099Z,96987.16
2022-10-10T14:02:00.715Z,96991.28
2022-10-10T14:04:36.513Z,96988.22
2022-10-10T14:07:13.753Z,96991.41
2022-10-10T14:09:53.667Z,96991.84
2022-10-10T14:12:42.607Z,96993.09
2022-10-10T14:15:27.815Z,96990.81
2022-10-10T14:17:54.130Z,96990.00
2022-10-10T14:20:20.506Z,96988.59
2022-10-10T14:22:46.810Z,96991.41
2022-10-10T14:25:13.236Z,96984.94
2022-10-10T14:27:40.033Z,96989.25
2022-10-10T14:30:06.750Z,96989.72
2022-10-10T14:32:33.143Z,96990.19
2022-10-10T14:34:59.526Z,96994.47
2022-10-10T14:37:27.137Z,96991.50
2022-10-10T14:39:53.653Z,96987.69
2022-10-10T14:42:20.939Z,96993.59
2022-10-10T14:44:47.336Z,96995.03
2022-10-10T14:47:18.144Z,96997.31
2022-10-10T14:49:46.656Z,97000.59
2022-10-10T14:52:12.985Z,96996.91
2022-10-10T14:54:39.885Z,96998.41
2022-10-10T14:57:09.886Z,96995.41
2022-10-10T14:59:48.426Z,97000.75
2022-10-10T15:02:20.517Z,96997.69
2022-10-10T15:04:47.052Z,97001.63
2022-10-10T15:07:22.664Z,97000.91
2022-10-10T15:12:37.269Z,97007.72
2022-10-10T15:15:04.005Z,97008.84
2022-10-10T15:17:33.610Z,97008.38
2022-10-10T15:20:00.609Z,97017.28
2022-10-10T15:22:28.304Z,97015.16
2022-10-10T15:24:54.648Z,97010.09
2022-10-10T15:27:21.005Z,97008.72
2022-10-10T15:29:47.333Z,97012.38
2022-10-10T15:32:13.786Z,97020.75
2022-10-10T15:34:40.145Z,97024.19
2022-10-10T15:37:08.091Z,97023.13
2022-10-10T15:39:35.392Z,97022.78
2022-10-10T15:42:12.122Z,97032.16
2022-10-10T15:44:44.547Z,97029.16
2022-10-10T15:47:11.064Z,97027.50
2022-10-10T15:49:40.349Z,97032.47
2022-10-10T15:52:06.809Z,97040.44
2022-10-10T15:54:33.171Z,97041.88
2022-10-10T15:56:59.532Z,97041.03
2022-10-10T15:59:25.896Z,97034.97
2022-10-10T16:01:53.809Z,97037.94
2022-10-10T16:04:22.397Z,97029.63
2022-10-10T16:06:54.592Z,97034.97
2022-10-10T16:09:35.183Z,97042.72
2022-10-10T16:12:01.597Z,97040.50
2022-10-10T16:14:28.266Z,97033.34
2022-10-10T16:16:54.595Z,97043.16
2022-10-10T16:19:20.906Z,97036.06
2022-10-10T16:21:55.174Z,97048.50
2022-10-10T16:24:21.504Z,97041.56
2022-10-10T16:26:47.918Z,97047.09
2022-10-10T16:29:15.178Z,97056.25
2022-10-10T16:31:42.968Z,97052.97
2022-10-10T16:34:10.358Z,97058.63
2022-10-10T16:36:37.440Z,97056.97
2022-10-10T16:39:04.373Z,97062.47
2022-10-10T16:41:48.426Z,97063.06
2022-10-10T16:44:15.665Z,97075.19
2022-10-10T16:46:42.147Z,97077.09
2022-10-10T16:49:09.694Z,97070.34
2022-10-10T16:51:37.013Z,97081.28
2022-10-10T16:54:05.092Z,97088.59
2022-10-10T16:56:31.975Z,97092.56
2022-10-10T16:59:00.737Z,97092.72
2022-10-10T17:01:27.361Z,97096.16
2022-10-10T17:03:53.801Z,97095.38
2022-10-10T17:06:22.461Z,97096.16
2022-10-10T17:08:50.237Z,97094.50
2022-10-10T17:11:17.758Z,97104.84
2022-10-10T17:13:44.314Z,97107.41
2022-10-10T17:16:44.988Z,97103.72
2022-10-10T17:19:00.389Z,97108.53
2022-10-10T17:21:27.829Z,97106.19
2022-10-10T17:23:55.601Z,97106.19
2022-10-10T17:26:22.601Z,97105.81
2022-10-10T17:28:49.697Z,97109.28
2022-10-10T17:31:16.511Z,97112.84
2022-10-10T17:33:43.589Z,97119.75
2022-10-10T17:36:11.515Z,97116.34
2022-10-10T17:38:40.399Z,97113.25
2022-10-10T17:41:07.338Z,97111.84
2022-10-10T17:43:34.014Z,97108.94
2022-10-10T17:46:21.915Z,97108.16
2022-10-10T17:48:50.741Z,97115.50
2022-10-10T17:51:18.474Z,97116.88
2022-10-10T17:53:46.773Z,97121.41
2022-10-10T17:56:15.689Z,97127.44
2022-10-10T17:58:42.470Z,97120.97
2022-10-10T18:01:10.849Z,97128.25
2022-10-10T18:03:38.471Z,97129.06
2022-10-10T18:06:16.460Z,97126.44
2022-10-10T18:08:42.864Z,97129.25
2022-10-10T18:11:13.905Z,97130.19
2022-10-10T18:13:40.530Z,97130.19
2022-10-10T18:16:14.440Z,97137.06
2022-10-10T18:18:41.318Z,97132.16
2022-10-10T18:21:08.671Z,97139.16
2022-10-10T18:23:35.560Z,97137.91
2022-10-10T18:26:03.098Z,97144.63
2022-10-10T18:28:33.497Z,97149.72
2022-10-10T18:31:18.451Z,97141.34
2022-10-10T18:33:45.066Z,97144.78
2022-10-10T18:36:12.671Z,97147.44
2022-10-10T18:38:38.981Z,97147.63
2022-10-10T18:41:06.291Z,97145.00
2022-10-10T18:43:33.184Z,97147.06
2022-10-10T18:46:03.028Z,97144.81
2022-10-10T18:48:29.769Z,97144.91
2022-10-10T18:51:14.564Z,97140.97
2022-10-10T18:53:42.363Z,97139.56
2022-10-10T18:56:10.899Z,97144.31
2022-10-10T18:58:37.770Z,97143.59
2022-10-10T19:01:08.673Z,97150.38
2022-10-10T19:03:35.986Z,97143.03
2022-10-10T19:06:03.435Z,97151.28
2022-10-10T19:08:31.785Z,97143.63
2022-10-10T19:10:58.266Z,97144.63
2022-10-10T19:13:24.740Z,97149.59
2022-10-10T19:15:52.235Z,97140.97
2022-10-10T19:18:20.061Z,97144.66
2022-10-10T19:20:46.530Z,97142.69
2022-10-10T19:23:14.971Z,97143.25
2022-10-10T19:25:42.524Z,97143.13
2022-10-10T19:28:09.545Z,97146.19
2022-10-10T19:30:38.135Z,97149.63
2022-10-10T19:33:04.698Z,97150.16
2022-10-10T19:35:41.659Z,97153.97
2022-10-10T19:38:12.112Z,97157.47
2022-10-10T19:40:45.503Z,97170.41
2022-10-10T19:43:11.909Z,97168.66
2022-10-10T19:45:51.241Z,97174.91
2022-10-10T19:48:19.661Z,97168.31
2022-10-10T19:50:46.664Z,97170.28
2022-10-10T19:53:14.560Z,97173.59
2022-10-10T19:55:41.636Z,97172.16
2022-10-10T19:58:08.029Z,97172.00
2022-10-10T20:00:34.451Z,97171.41
2022-10-10T20:03:01.863Z,97175.63
2022-10-10T20:05:31.151Z,97174.50
2022-10-10T20:07:57.748Z,97178.91
2022-10-10T20:10:30.291Z,97182.88
2022-10-10T20:12:56.630Z,97178.97
2022-10-10T20:15:27.104Z,97184.25
2022-10-10T20:17:59.216Z,97188.00
2022-10-10T20:20:25.528Z,97185.72
2022-10-10T20:22:51.885Z,97189.50
2022-10-10T20:25:18.291Z,97194.00
2022-10-10T20:27:48.709Z,97195.09
2022-10-10T20:30:15.064Z,97204.94
2022-10-10T20:32:48.521Z,97204.63
2022-10-10T20:35:27.065Z,97206.59
2022-10-10T20:37:53.382Z,97211.88
2022-10-10T20:40:19.767Z,97205.47
2022-10-10T20:42:46.112Z,97213.03
2022-10-10T20:45:12.433Z,97206.94
2022-10-10T20:47:38.729Z,97219.00
2022-10-10T20:50:07.366Z,97213.56
2022-10-10T20:52:33.714Z,97219.81
2022-10-10T20:55:00.037Z,97216.88
2022-10-10T20:57:28.393Z,97215.72
2022-10-10T20:59:55.173Z,97222.28
2022-10-10T21:02:24.792Z,97224.94
2022-10-10T21:04:51.355Z,97220.16
2022-10-10T21:07:17.763Z,97219.81
2022-10-10T21:09:44.082Z,97223.44
2022-10-10T21:12:10.396Z,97219.19
2022-10-10T21:14:37.336Z,97216.06
2022-10-10T21:17:05.643Z,97223.78
2022-10-10T21:19:32.009Z,97232.66
2022-10-10T21:22:04.570Z,97232.00
2022-10-10T21:24:30.971Z,97231.69
2022-10-10T21:26:58.329Z,97235.94
2022-10-10T21:29:24.735Z,97229.69
2022-10-10T21:31:51.041Z,97240.97
2022-10-10T21:34:19.054Z,97237.56
2022-10-10T21:36:46.628Z,97242.50
2022-10-10T21:39:13.872Z,97243.28
2022-10-10T21:41:40.685Z,97245.88
2022-10-10T21:44:07.107Z,97246.75
2022-10-10T21:46:36.481Z,97248.72
2022-10-10T21:49:07.543Z,97256.28
2022-10-10T21:51:38.381Z,97257.25
2022-10-10T21:54:05.017Z,97259.28
2022-10-10T21:56:31.406Z,97263.78
2022-10-10T21:59:03.991Z,97252.97
2022-10-10T22:01:32.847Z,97254.28
2022-10-10T22:03:59.986Z,97261.78
2022-10-10T22:06:26.321Z,97259.25
2022-10-10T22:08:54.300Z,97261.13
2022-10-10T22:11:23.135Z,97255.50
2022-10-10T22:13:49.579Z,97250.91
2022-10-10T22:16:16.323Z,97254.16
2022-10-10T22:18:42.656Z,97258.47
2022-10-10T22:21:10.963Z,97253.06
2022-10-10T22:23:37.407Z,97253.38
2022-10-10T22:26:07.407Z,97264.53
2022-10-10T22:28:40.527Z,97269.00
2022-10-10T22:31:07.808Z,97263.06
2022-10-10T22:33:34.124Z,97263.03
2022-10-10T22:36:00.601Z,97266.25
2022-10-10T22:38:29.436Z,97262.03
2022-10-10T22:40:56.056Z,97267.59
2022-10-10T22:43:26.625Z,97268.66
2022-10-10T22:45:53.363Z,97273.47
2022-10-10T22:48:20.864Z,97266.59
2022-10-10T22:50:47.196Z,97274.13
2022-10-10T22:53:13.520Z,97275.88
2022-10-10T22:55:39.876Z,97276.38
2022-10-10T22:58:06.181Z,97275.06
2022-10-10T23:00:32.555Z,97278.72
2022-10-10T23:02:58.931Z,97277.44
2022-10-10T23:05:25.654Z,97275.47
2022-10-10T23:07:51.991Z,97287.00
2022-10-10T23:10:18.333Z,97279.19
2022-10-10T23:12:45.650Z,97284.78
2022-10-10T23:15:12.026Z,97281.75
2022-10-10T23:17:38.343Z,97286.78
2022-10-10T23:20:04.966Z,97286.38
2022-10-10T23:22:32.277Z,97290.06
2022-10-10T23:24:58.697Z,97296.03
2022-10-10T23:27:25.021Z,97290.03
2022-10-10T23:29:51.328Z,97295.53
2022-10-10T23:32:17.702Z,97300.97
2022-10-10T23:34:44.014Z,97314.56
2022-10-10T23:37:10.324Z,97322.66
2022-10-10T23:39:36.730Z,97324.31
2022-10-10T23:42:03.047Z,97318.63
2022-10-10T23:44:29.501Z,97326.50
2022-10-10T23:46:55.814Z,97331.25
2022-10-10T23:49:22.186Z,97335.53
2022-10-10T23:51:48.483Z,97342.91
2022-10-10T23:54:14.832Z,97333.09
2022-10-10T23:56:41.221Z,97338.66
2022-10-10T23:59:07.728Z,97337.91
